sensor_id;sensor_type;location;lat;lon;timestamp;pressure;altitude;pressure_sealevel;temperature;humidity
7730;BME280;3908;52.310;7.230;2022-09-09T00:00:26;51352.41;;;-145.83;93.76
7730;BME280;3908;52.310;7.230;2022-09-09T00:03:17;51370.03;;;-145.83;93.76
7730;BME280;3908;52.310;7.230;2022-09-09T00:06:11;51336.75;;;-145.83;94.10
7730;BME280;3908;52.310;7.230;2022-09-09T00:09:08;51368.06;;;-145.83;94.10
7730;BME280;3908;52.310;7.230;2022-09-09T00:12:01;51352.41;;;-145.83;94.51
7730;BME280;3908;52.310;7.230;2022-09-09T00:14:52;51383.72;;;-145.83;94.97
7730;BME280;3908;52.310;7.230;2022-09-09T00:17:46;51381.75;;;-145.83;95.48
7730;BME280;3908;52.310;7.230;2022-09-09T00:20:39;51354.38;;;-145.83;95.64
7730;BME280;3908;52.310;7.230;2022-09-09T00:23:35;51334.81;;;-145.83;95.85
7730;BME280;3908;52.310;7.230;2022-09-09T00:26:31;51360.22;;;-145.83;95.32
7730;BME280;3908;52.310;7.230;2022-09-09T00:29:25;51377.84;;;-145.83;95.75
7730;BME280;3908;52.310;7.230;2022-09-09T00:32:15;51368.06;;;-145.83;97.90
7730;BME280;3908;52.310;7.230;2022-09-09T00:35:12;51344.59;;;-145.83;97.79
7730;BME280;3908;52.310;7.230;2022-09-09T00:38:10;51352.41;;;-145.83;97.74
7730;BME280;3908;52.310;7.230;2022-09-09T00:41:06;51330.91;;;-145.83;97.34
7730;BME280;3908;52.310;7.230;2022-09-09T00:44:00;51348.50;;;-145.83;97.50
7730;BME280;3908;52.310;7.230;2022-09-09T00:46:59;51366.09;;;-145.83;97.57
7730;BME280;3908;52.310;7.230;2022-09-09T00:49:59;51358.28;;;-145.83;97.77
7730;BME280;3908;52.310;7.230;2022-09-09T00:52:55;51383.72;;;-145.83;97.61
7730;BME280;3908;52.310;7.230;2022-09-09T00:55:48;51358.28;;;-145.83;97.33
7730;BME280;3908;52.310;7.230;2022-09-09T00:58:42;51360.22;;;-145.83;97.15
7730;BME280;3908;52.310;7.230;2022-09-09T01:01:29;51368.06;;;-145.83;96.93
7730;BME280;3908;52.310;7.230;2022-09-09T01:04:23;51385.66;;;-145.83;96.95
7730;BME280;3908;52.310;7.230;2022-09-09T01:07:16;51371.97;;;-145.83;97.66
7730;BME280;3908;52.310;7.230;2022-09-09T01:10:07;51370.03;;;-145.83;97.24
7730;BME280;3908;52.310;7.230;2022-09-09T01:13:03;51377.84;;;-145.83;97.45
7730;BME280;3908;52.310;7.230;2022-09-09T01:15:54;51350.47;;;-145.83;97.79
7730;BME280;3908;52.310;7.230;2022-09-09T01:18:44;51377.84;;;-145.83;97.53
7730;BME280;3908;52.310;7.230;2022-09-09T01:21:39;51381.75;;;-145.83;97.69
7730;BME280;3908;52.310;7.230;2022-09-09T01:24:35;51360.22;;;-145.83;97.47
7730;BME280;3908;52.310;7.230;2022-09-09T01:27:26;51377.84;;;-145.83;96.68
7730;BME280;3908;52.310;7.230;2022-09-09T01:30:14;51368.06;;;-145.83;96.40
7730;BME280;3908;52.310;7.230;2022-09-09T01:33:03;51360.22;;;-145.83;96.58
7730;BME280;3908;52.310;7.230;2022-09-09T01:35:53;51344.59;;;-145.83;96.55
7730;BME280;3908;52.310;7.230;2022-09-09T01:38:42;51356.31;;;-145.83;96.59
7730;BME280;3908;52.310;7.230;2022-09-09T01:41:29;51391.53;;;-145.83;96.34
7730;BME280;3908;52.310;7.230;2022-09-09T01:44:19;51366.09;;;-145.83;96.55
7730;BME280;3908;52.310;7.230;2022-09-09T01:47:06;51336.75;;;-145.83;96.61
7730;BME280;3908;52.310;7.230;2022-09-09T01:49:53;51334.81;;;-145.83;96.41
7730;BME280;3908;52.310;7.230;2022-09-09T01:52:41;51358.28;;;-145.83;96.77
7730;BME280;3908;52.310;7.230;2022-09-09T01:55:30;51356.31;;;-145.83;97.13
7730;BME280;3908;52.310;7.230;2022-09-09T01:58:27;51334.81;;;-145.83;97.08
7730;BME280;3908;52.310;7.230;2022-09-09T02:01:26;51336.75;;;-145.83;97.23
7730;BME280;3908;52.310;7.230;2022-09-09T02:04:26;51368.06;;;-145.83;97.60
7730;BME280;3908;52.310;7.230;2022-09-09T02:07:28;51332.84;;;-145.83;98.08
7730;BME280;3908;52.310;7.230;2022-09-09T02:10:21;51311.31;;;-145.83;98.46
7730;BME280;3908;52.310;7.230;2022-09-09T02:13:12;51371.97;;;-145.83;98.89
7730;BME280;3908;52.310;7.230;2022-09-09T02:16:04;51336.75;;;-145.83;98.71
7730;BME280;3908;52.310;7.230;2022-09-09T02:18:58;51342.63;;;-145.83;98.75
7730;BME280;3908;52.310;7.230;2022-09-09T02:21:47;51317.19;;;-145.83;98.58
7730;BME280;3908;52.310;7.230;2022-09-09T02:24:39;51326.97;;;-145.83;99.20
7730;BME280;3908;52.310;7.230;2022-09-09T02:27:27;51326.97;;;-145.83;99.15
7730;BME280;3908;52.310;7.230;2022-09-09T02:30:14;51366.09;;;-145.83;99.54
7730;BME280;3908;52.310;7.230;2022-09-09T02:33:04;51370.03;;;-145.83;99.41
7730;BME280;3908;52.310;7.230;2022-09-09T02:35:55;51317.19;;;-145.83;99.15
7730;BME280;3908;52.310;7.230;2022-09-09T02:38:47;51336.75;;;-145.83;99.63
7730;BME280;3908;52.310;7.230;2022-09-09T02:41:40;51377.84;;;-145.83;99.98
7730;BME280;3908;52.310;7.230;2022-09-09T02:44:27;51297.63;;;-145.83;99.92
7730;BME280;3908;52.310;7.230;2022-09-09T02:47:25;51379.81;;;-145.83;100.00
7730;BME280;3908;52.310;7.230;2022-09-09T02:50:16;51354.38;;;-145.83;100.00
7730;BME280;3908;52.310;7.230;2022-09-09T02:53:10;51307.41;;;-145.83;99.90
7730;BME280;3908;52.310;7.230;2022-09-09T02:56:04;51350.47;;;-145.83;99.97
7730;BME280;3908;52.310;7.230;2022-09-09T02:58:52;51342.63;;;-145.83;99.94
7730;BME280;3908;52.310;7.230;2022-09-09T03:01:40;51297.63;;;-145.83;100.00
7730;BME280;3908;52.310;7.230;2022-09-09T03:04:27;51332.84;;;-145.83;99.94
7730;BME280;3908;52.310;7.230;2022-09-09T03:07:14;51315.25;;;-145.83;100.00
7730;BME280;3908;52.310;7.230;2022-09-09T03:10:05;51338.72;;;-145.83;99.85
7730;BME280;3908;52.310;7.230;2022-09-09T03:12:52;51368.06;;;-145.83;100.00
7730;BME280;3908;52.310;7.230;2022-09-09T03:15:39;51334.81;;;-145.83;100.00
7730;BME280;3908;52.310;7.230;2022-09-09T03:18:26;51358.28;;;-145.83;100.00
7730;BME280;3908;52.310;7.230;2022-09-09T03:21:13;51352.41;;;-145.83;100.00
7730;BME280;3908;52.310;7.230;2022-09-09T03:24:01;51309.38;;;-145.83;100.00
7730;BME280;3908;52.310;7.230;2022-09-09T03:26:50;51313.28;;;-145.83;100.00
7730;BME280;3908;52.310;7.230;2022-09-09T03:29:37;51340.69;;;-145.83;100.00
7730;BME280;3908;52.310;7.230;2022-09-09T03:32:24;51334.81;;;-145.83;100.00
7730;BME280;3908;52.310;7.230;2022-09-09T03:35:12;51350.47;;;-145.83;100.00
7730;BME280;3908;52.310;7.230;2022-09-09T03:37:59;51334.81;;;-145.83;100.00
7730;BME280;3908;52.310;7.230;2022-09-09T03:40:50;51323.06;;;-145.83;100.00
7730;BME280;3908;52.310;7.230;2022-09-09T03:43:42;51346.53;;;-145.83;100.00
7730;BME280;3908;52.310;7.230;2022-09-09T03:46:29;51315.25;;;-145.83;100.00
7730;BME280;3908;52.310;7.230;2022-09-09T03:49:16;51379.81;;;-145.83;100.00
7730;BME280;3908;52.310;7.230;2022-09-09T03:52:05;51366.09;;;-145.83;100.00
7730;BME280;3908;52.310;7.230;2022-09-09T03:54:52;51348.50;;;-145.83;100.00
7730;BME280;3908;52.310;7.230;2022-09-09T03:57:40;51313.28;;;-145.83;100.00
7730;BME280;3908;52.310;7.230;2022-09-09T04:00:29;51344.59;;;-145.83;100.00
7730;BME280;3908;52.310;7.230;2022-09-09T04:03:16;51332.84;;;-145.83;100.00
7730;BME280;3908;52.310;7.230;2022-09-09T04:06:04;51340.69;;;-145.83;100.00
7730;BME280;3908;52.310;7.230;2022-09-09T04:08:52;51323.06;;;-145.83;100.00
7730;BME280;3908;52.310;7.230;2022-09-09T04:11:40;51295.69;;;-145.83;100.00
7730;BME280;3908;52.310;7.230;2022-09-09T04:14:27;51350.47;;;-145.83;100.00
7730;BME280;3908;52.310;7.230;2022-09-09T04:17:16;51342.63;;;-145.83;100.00
7730;BME280;3908;52.310;7.230;2022-09-09T04:20:03;51350.47;;;-145.83;100.00
7730;BME280;3908;52.310;7.230;2022-09-09T04:22:50;51332.84;;;-145.83;100.00
7730;BME280;3908;52.310;7.230;2022-09-09T04:25:37;51319.16;;;-145.83;100.00
7730;BME280;3908;52.310;7.230;2022-09-09T04:28:27;51309.38;;;-145.83;100.00
7730;BME280;3908;52.310;7.230;2022-09-09T04:31:16;51346.53;;;-145.83;100.00
7730;BME280;3908;52.310;7.230;2022-09-09T04:34:05;51325.03;;;-145.83;100.00
7730;BME280;3908;52.310;7.230;2022-09-09T04:36:52;51334.81;;;-145.83;100.00
7730;BME280;3908;52.310;7.230;2022-09-09T04:39:40;51315.25;;;-145.83;100.00
7730;BME280;3908;52.310;7.230;2022-09-09T04:42:27;51346.53;;;-145.83;100.00
7730;BME280;3908;52.310;7.230;2022-09-09T04:45:14;51330.91;;;-145.83;100.00
7730;BME280;3908;52.310;7.230;2022-09-09T04:48:01;51325.03;;;-145.83;100.00
7730;BME280;3908;52.310;7.230;2022-09-09T04:50:57;51340.69;;;-145.83;100.00
7730;BME280;3908;52.310;7.230;2022-09-09T04:53:44;51344.59;;;-145.83;100.00
7730;BME280;3908;52.310;7.230;2022-09-09T04:56:32;51334.81;;;-145.83;100.00
7730;BME280;3908;52.310;7.230;2022-09-09T04:59:19;51348.50;;;-145.83;100.00
7730;BME280;3908;52.310;7.230;2022-09-09T05:02:06;51332.84;;;-145.83;100.00
7730;BME280;3908;52.310;7.230;2022-09-09T05:04:53;51315.25;;;-145.83;100.00
7730;BME280;3908;52.310;7.230;2022-09-09T05:07:42;51348.50;;;-145.83;100.00
7730;BME280;3908;52.310;7.230;2022-09-09T05:10:29;51321.09;;;-145.83;100.00
7730;BME280;3908;52.310;7.230;2022-09-09T05:13:18;51334.81;;;-145.83;100.00
7730;BME280;3908;52.310;7.230;2022-09-09T05:16:06;51326.97;;;-145.83;100.00
7730;BME280;3908;52.310;7.230;2022-09-09T05:18:57;51332.84;;;-145.83;100.00
7730;BME280;3908;52.310;7.230;2022-09-09T05:21:45;51371.97;;;-145.83;100.00
7730;BME280;3908;52.310;7.230;2022-09-09T05:24:33;51370.03;;;-145.83;100.00
7730;BME280;3908;52.310;7.230;2022-09-09T05:27:20;51328.94;;;-145.83;100.00
7730;BME280;3908;52.310;7.230;2022-09-09T05:30:09;51379.81;;;-145.83;100.00
7730;BME280;3908;52.310;7.230;2022-09-09T05:32:58;51319.16;;;-145.83;100.00
7730;BME280;3908;52.310;7.230;2022-09-09T05:35:45;51348.50;;;-145.83;100.00
7730;BME280;3908;52.310;7.230;2022-09-09T05:38:33;51326.97;;;-145.83;100.00
7730;BME280;3908;52.310;7.230;2022-09-09T05:41:22;51356.31;;;-145.83;100.00
7730;BME280;3908;52.310;7.230;2022-09-09T05:44:09;51340.69;;;-145.83;100.00
7730;BME280;3908;52.310;7.230;2022-09-09T05:46:56;51397.41;;;-145.83;100.00
7730;BME280;3908;52.310;7.230;2022-09-09T05:49:44;51364.16;;;-145.83;100.00
7730;BME280;3908;52.310;7.230;2022-09-09T05:52:31;51366.09;;;-145.83;100.00
7730;BME280;3908;52.310;7.230;2022-09-09T05:55:18;51350.47;;;-145.83;100.00
7730;BME280;3908;52.310;7.230;2022-09-09T05:58:07;51338.72;;;-145.83;100.00
7730;BME280;3908;52.310;7.230;2022-09-09T06:01:01;51368.06;;;-145.83;100.00
7730;BME280;3908;52.310;7.230;2022-09-09T06:03:50;51358.28;;;-145.83;100.00
7730;BME280;3908;52.310;7.230;2022-09-09T06:06:37;51364.16;;;-145.83;100.00
7730;BME280;3908;52.310;7.230;2022-09-09T06:09:25;51379.81;;;-145.83;100.00
7730;BME280;3908;52.310;7.230;2022-09-09T06:12:12;51379.81;;;-145.83;100.00
7730;BME280;3908;52.310;7.230;2022-09-09T06:15:01;51352.41;;;-145.83;100.00
7730;BME280;3908;52.310;7.230;2022-09-09T06:17:54;51362.19;;;-145.83;100.00
7730;BME280;3908;52.310;7.230;2022-09-09T06:20:41;51379.81;;;-145.83;100.00
7730;BME280;3908;52.310;7.230;2022-09-09T06:23:28;51371.97;;;-145.83;100.00
7730;BME280;3908;52.310;7.230;2022-09-09T06:26:17;51395.44;;;-145.83;100.00
7730;BME280;3908;52.310;7.230;2022-09-09T06:29:04;51422.84;;;-145.83;100.00
7730;BME280;3908;52.310;7.230;2022-09-09T06:31:53;51401.31;;;-145.83;100.00
7730;BME280;3908;52.310;7.230;2022-09-09T06:34:40;51377.84;;;-145.83;100.00
7730;BME280;3908;52.310;7.230;2022-09-09T06:37:27;51416.97;;;-145.83;100.00
7730;BME280;3908;52.310;7.230;2022-09-09T06:40:14;51403.28;;;-145.83;100.00
7730;BME280;3908;52.310;7.230;2022-09-09T06:43:01;51358.28;;;-145.83;100.00
7730;BME280;3908;52.310;7.230;2022-09-09T06:45:55;51395.44;;;-145.83;100.00
7730;BME280;3908;52.310;7.230;2022-09-09T06:48:44;51403.28;;;-145.83;100.00
7730;BME280;3908;52.310;7.230;2022-09-09T06:51:34;51401.31;;;-145.83;100.00
7730;BME280;3908;52.310;7.230;2022-09-09T06:54:21;51375.88;;;-145.83;100.00
7730;BME280;3908;52.310;7.230;2022-09-09T06:57:09;51373.94;;;-145.83;100.00
7730;BME280;3908;52.310;7.230;2022-09-09T06:59:56;51395.44;;;-145.83;100.00
7730;BME280;3908;52.310;7.230;2022-09-09T07:02:43;51387.63;;;-145.83;99.95
7730;BME280;3908;52.310;7.230;2022-09-09T07:05:32;51385.66;;;-145.83;99.91
7730;BME280;3908;52.310;7.230;2022-09-09T07:08:19;51385.66;;;-145.83;100.00
7730;BME280;3908;52.310;7.230;2022-09-09T07:11:08;51397.41;;;-145.83;99.69
7730;BME280;3908;52.310;7.230;2022-09-09T07:13:56;51415.00;;;-145.83;99.77
7730;BME280;3908;52.310;7.230;2022-09-09T07:16:44;51356.31;;;-145.83;99.48
7730;BME280;3908;52.310;7.230;2022-09-09T07:19:32;51391.53;;;-145.83;99.25
7730;BME280;3908;52.310;7.230;2022-09-09T07:22:21;51399.38;;;-145.83;99.40
7730;BME280;3908;52.310;7.230;2022-09-09T07:25:08;51395.44;;;-145.83;98.68
7730;BME280;3908;52.310;7.230;2022-09-09T07:27:55;51440.44;;;-145.83;98.59
7730;BME280;3908;52.310;7.230;2022-09-09T07:30:43;51418.94;;;-145.83;98.04
7730;BME280;3908;52.310;7.230;2022-09-09T07:33:30;51442.41;;;-145.83;97.48
7730;BME280;3908;52.310;7.230;2022-09-09T07:36:20;51403.28;;;-145.83;97.26
7730;BME280;3908;52.310;7.230;2022-09-09T07:39:11;51436.53;;;-145.83;95.70
7730;BME280;3908;52.310;7.230;2022-09-09T07:41:59;51420.88;;;-145.83;95.57
7730;BME280;3908;52.310;7.230;2022-09-09T07:44:46;51465.88;;;-145.83;94.73
7730;BME280;3908;52.310;7.230;2022-09-09T07:47:33;51416.97;;;-145.83;94.33
7730;BME280;3908;52.310;7.230;2022-09-09T07:50:21;51393.50;;;-145.83;93.25
7730;BME280;3908;52.310;7.230;2022-09-09T07:53:08;51432.63;;;-145.83;92.88
7730;BME280;3908;52.310;7.230;2022-09-09T07:56:02;51471.75;;;-145.83;90.03
7730;BME280;3908;52.310;7.230;2022-09-09T07:58:51;51450.22;;;-145.83;88.28
7730;BME280;3908;52.310;7.230;2022-09-09T08:01:40;51418.94;;;-145.83;88.88
7730;BME280;3908;52.310;7.230;2022-09-09T08:04:27;51424.78;;;-145.83;83.59
7730;BME280;3908;52.310;7.230;2022-09-09T08:07:15;51422.84;;;-145.83;83.56
7730;BME280;3908;52.310;7.230;2022-09-09T08:10:03;51465.88;;;-145.83;82.13
7730;BME280;3908;52.310;7.230;2022-09-09T08:12:51;51444.34;;;-145.83;81.22
7730;BME280;3908;52.310;7.230;2022-09-09T08:15:39;51493.25;;;-145.83;82.23
7730;BME280;3908;52.310;7.230;2022-09-09T08:18:27;51428.72;;;-145.83;78.96
7730;BME280;3908;52.310;7.230;2022-09-09T08:21:15;51460.00;;;-145.83;79.62
7730;BME280;3908;52.310;7.230;2022-09-09T08:24:04;51467.84;;;-145.83;78.46
7730;BME280;3908;52.310;7.230;2022-09-09T08:26:51;51446.31;;;-145.83;78.60
7730;BME280;3908;52.310;7.230;2022-09-09T08:29:40;51444.34;;;-145.83;79.11
7730;BME280;3908;52.310;7.230;2022-09-09T08:32:27;51450.22;;;-145.83;78.49
7730;BME280;3908;52.310;7.230;2022-09-09T08:35:14;51479.56;;;-145.83;79.24
7730;BME280;3908;52.310;7.230;2022-09-09T08:38:03;51456.09;;;-145.83;78.88
7730;BME280;3908;52.310;7.230;2022-09-09T08:40:53;51416.97;;;-145.83;79.60
7730;BME280;3908;52.310;7.230;2022-09-09T08:43:46;51440.44;;;-145.83;78.26
7730;BME280;3908;52.310;7.230;2022-09-09T08:46:44;51473.69;;;-145.83;78.62
7730;BME280;3908;52.310;7.230;2022-09-09T08:49:47;51450.22;;;-145.83;77.75
7730;BME280;3908;52.310;7.230;2022-09-09T08:52:49;51434.56;;;-145.83;75.62
7730;BME280;3908;52.310;7.230;2022-09-09T08:55:41;51428.72;;;-145.83;74.99
7730;BME280;3908;52.310;7.230;2022-09-09T08:58:32;51458.06;;;-145.83;75.61
7730;BME280;3908;52.310;7.230;2022-09-09T09:01:38;51440.44;;;-145.83;75.07
7730;BME280;3908;52.310;7.230;2022-09-09T09:04:40;51450.22;;;-145.83;74.24
7730;BME280;3908;52.310;7.230;2022-09-09T09:07:42;51467.84;;;-145.83;73.32
7730;BME280;3908;52.310;7.230;2022-09-09T09:10:43;51473.69;;;-145.83;71.05
7730;BME280;3908;52.310;7.230;2022-09-09T09:13:35;51475.66;;;-145.83;70.11
7730;BME280;3908;52.310;7.230;2022-09-09T09:16:32;51467.84;;;-145.83;69.84
7730;BME280;3908;52.310;7.230;2022-09-09T09:19:22;51516.75;;;-145.83;68.54
7730;BME280;3908;52.310;7.230;2022-09-09T09:22:17;51467.84;;;-145.83;67.69
7730;BME280;3908;52.310;7.230;2022-09-09T09:25:11;51475.66;;;-145.83;66.74
7730;BME280;3908;52.310;7.230;2022-09-09T09:28:07;51487.41;;;-145.83;65.81
7730;BME280;3908;52.310;7.230;2022-09-09T09:31:01;51505.00;;;-145.83;65.39
7730;BME280;3908;52.310;7.230;2022-09-09T09:33:50;51471.75;;;-145.83;66.15
7730;BME280;3908;52.310;7.230;2022-09-09T09:36:41;51465.88;;;-145.83;66.51
7730;BME280;3908;52.310;7.230;2022-09-09T09:39:32;51528.47;;;-145.83;64.59
7730;BME280;3908;52.310;7.230;2022-09-09T09:42:22;51510.88;;;-145.83;63.47
7730;BME280;3908;52.310;7.230;2022-09-09T09:45:16;51538.25;;;-145.83;63.79
7730;BME280;3908;52.310;7.230;2022-09-09T09:48:09;51522.63;;;-145.83;62.90
7730;BME280;3908;52.310;7.230;2022-09-09T09:50:58;51483.47;;;-145.83;63.03
7730;BME280;3908;52.310;7.230;2022-09-09T09:53:46;51503.06;;;-145.83;64.04
7730;BME280;3908;52.310;7.230;2022-09-09T09:56:36;51501.09;;;-145.83;63.54
7730;BME280;3908;52.310;7.230;2022-09-09T09:59:33;51505.00;;;-145.83;62.36
7730;BME280;3908;52.310;7.230;2022-09-09T10:02:22;51501.09;;;-145.83;61.93
7730;BME280;3908;52.310;7.230;2022-09-09T10:05:14;51503.06;;;-145.83;62.49
7730;BME280;3908;52.310;7.230;2022-09-09T10:08:04;51491.31;;;-145.83;62.52
7730;BME280;3908;52.310;7.230;2022-09-09T10:11:03;51505.00;;;-145.83;62.72
7730;BME280;3908;52.310;7.230;2022-09-09T10:14:02;51516.75;;;-145.83;62.22
7730;BME280;3908;52.310;7.230;2022-09-09T10:17:02;51503.06;;;-145.83;63.00
7730;BME280;3908;52.310;7.230;2022-09-09T10:20:00;51516.75;;;-145.83;62.36
7730;BME280;3908;52.310;7.230;2022-09-09T10:22:51;51477.63;;;-145.83;61.75
7730;BME280;3908;52.310;7.230;2022-09-09T10:25:51;51516.75;;;-145.83;59.84
7730;BME280;3908;52.310;7.230;2022-09-09T10:29:03;51501.09;;;-145.83;59.28
7730;BME280;3908;52.310;7.230;2022-09-09T10:32:03;51487.41;;;-145.83;60.91
7730;BME280;3908;52.310;7.230;2022-09-09T10:34:56;51510.88;;;-145.83;60.43
7730;BME280;3908;52.310;7.230;2022-09-09T10:41:19;51489.34;;;-145.83;59.52
7730;BME280;3908;52.310;7.230;2022-09-09T10:44:28;51512.84;;;-145.83;59.24
7730;BME280;3908;52.310;7.230;2022-09-09T10:47:37;51499.13;;;-145.83;58.11
7730;BME280;3908;52.310;7.230;2022-09-09T10:50:50;51526.53;;;-145.83;58.70
7730;BME280;3908;52.310;7.230;2022-09-09T10:53:51;51499.13;;;-145.83;55.37
7730;BME280;3908;52.310;7.230;2022-09-09T10:56:42;51505.00;;;-145.83;58.03
7730;BME280;3908;52.310;7.230;2022-09-09T10:59:36;51503.06;;;-145.83;56.52
7730;BME280;3908;52.310;7.230;2022-09-09T11:02:27;51497.19;;;-145.83;55.76
7730;BME280;3908;52.310;7.230;2022-09-09T11:05:18;51516.75;;;-145.83;55.39
7730;BME280;3908;52.310;7.230;2022-09-09T11:08:14;51514.78;;;-145.83;55.75
7730;BME280;3908;52.310;7.230;2022-09-09T11:11:07;51499.13;;;-145.83;56.04
7730;BME280;3908;52.310;7.230;2022-09-09T11:14:02;51516.75;;;-145.83;57.93
7730;BME280;3908;52.310;7.230;2022-09-09T11:16:57;51503.06;;;-145.83;57.51
7730;BME280;3908;52.310;7.230;2022-09-09T11:19:46;51493.25;;;-145.83;58.79
7730;BME280;3908;52.310;7.230;2022-09-09T11:22:36;51483.47;;;-145.83;59.51
7730;BME280;3908;52.310;7.230;2022-09-09T11:25:29;51495.22;;;-145.83;58.14
7730;BME280;3908;52.310;7.230;2022-09-09T11:28:31;51528.47;;;-145.83;57.52
7730;BME280;3908;52.310;7.230;2022-09-09T11:31:33;51469.78;;;-145.83;58.06
7730;BME280;3908;52.310;7.230;2022-09-09T11:34:38;51473.69;;;-145.83;59.56
7730;BME280;3908;52.310;7.230;2022-09-09T11:37:46;51491.31;;;-145.83;58.45
7730;BME280;3908;52.310;7.230;2022-09-09T11:40:37;51508.91;;;-145.83;57.73
7730;BME280;3908;52.310;7.230;2022-09-09T11:43:28;51522.63;;;-145.83;56.54
7730;BME280;3908;52.310;7.230;2022-09-09T11:46:18;51526.53;;;-145.83;56.37
7730;BME280;3908;52.310;7.230;2022-09-09T11:49:26;51506.97;;;-145.83;55.39
7730;BME280;3908;52.310;7.230;2022-09-09T11:52:23;51530.44;;;-145.83;54.33
7730;BME280;3908;52.310;7.230;2022-09-09T11:55:24;51501.09;;;-145.83;54.03
7730;BME280;3908;52.310;7.230;2022-09-09T11:58:16;51514.78;;;-145.83;55.42
7730;BME280;3908;52.310;7.230;2022-09-09T12:01:13;51501.09;;;-145.83;56.70
7730;BME280;3908;52.310;7.230;2022-09-09T12:07:35;51499.13;;;-145.83;53.65
7730;BME280;3908;52.310;7.230;2022-09-09T12:10:26;51489.34;;;-145.83;55.57
7730;BME280;3908;52.310;7.230;2022-09-09T12:13:16;51512.84;;;-145.83;55.18
7730;BME280;3908;52.310;7.230;2022-09-09T12:16:03;51493.25;;;-145.83;55.87
7730;BME280;3908;52.310;7.230;2022-09-09T12:18:51;51544.13;;;-145.83;56.09
7730;BME280;3908;52.310;7.230;2022-09-09T12:21:44;51497.19;;;-145.83;56.08
7730;BME280;3908;52.310;7.230;2022-09-09T12:24:37;51510.88;;;-145.83;55.37
7730;BME280;3908;52.310;7.230;2022-09-09T12:27:33;51546.09;;;-145.83;54.91
7730;BME280;3908;52.310;7.230;2022-09-09T12:30:28;51499.13;;;-145.83;56.11
7730;BME280;3908;52.310;7.230;2022-09-09T12:33:18;51516.75;;;-145.83;54.91
7730;BME280;3908;52.310;7.230;2022-09-09T12:36:09;51508.91;;;-145.83;55.69
7730;BME280;3908;52.310;7.230;2022-09-09T12:39:10;51479.56;;;-145.83;55.51
7730;BME280;3908;52.310;7.230;2022-09-09T12:41:58;51497.19;;;-145.83;56.54
7730;BME280;3908;52.310;7.230;2022-09-09T12:44:56;51473.69;;;-145.83;56.66
7730;BME280;3908;52.310;7.230;2022-09-09T12:47:46;51481.53;;;-145.83;55.95
7730;BME280;3908;52.310;7.230;2022-09-09T12:50:37;51485.44;;;-145.83;57.52
7730;BME280;3908;52.310;7.230;2022-09-09T12:53:29;51489.34;;;-145.83;56.53
7730;BME280;3908;52.310;7.230;2022-09-09T12:56:21;51550.00;;;-145.83;56.42
7730;BME280;3908;52.310;7.230;2022-09-09T12:59:23;51481.53;;;-145.83;56.01
7730;BME280;3908;52.310;7.230;2022-09-09T13:02:18;51491.31;;;-145.83;56.20
7730;BME280;3908;52.310;7.230;2022-09-09T13:05:15;51489.34;;;-145.83;56.63
7730;BME280;3908;52.310;7.230;2022-09-09T13:08:04;51528.47;;;-145.83;56.25
7730;BME280;3908;52.310;7.230;2022-09-09T13:10:56;51477.63;;;-145.83;55.51
7730;BME280;3908;52.310;7.230;2022-09-09T13:13:50;51489.34;;;-145.83;56.23
7730;BME280;3908;52.310;7.230;2022-09-09T13:16:39;51477.63;;;-145.83;57.04
7730;BME280;3908;52.310;7.230;2022-09-09T13:19:29;51481.53;;;-145.83;55.33
7730;BME280;3908;52.310;7.230;2022-09-09T13:22:21;51483.47;;;-145.83;57.33
7730;BME280;3908;52.310;7.230;2022-09-09T13:25:18;51471.75;;;-145.83;57.51
7730;BME280;3908;52.310;7.230;2022-09-09T13:28:20;51422.84;;;-145.83;59.30
7730;BME280;3908;52.310;7.230;2022-09-09T13:31:20;51452.19;;;-145.83;61.55
7730;BME280;3908;52.310;7.230;2022-09-09T13:34:14;51432.63;;;-145.83;64.54
7730;BME280;3908;52.310;7.230;2022-09-09T13:37:23;51483.47;;;-145.83;65.82
7730;BME280;3908;52.310;7.230;2022-09-09T13:40:18;51481.53;;;-145.83;64.89
7730;BME280;3908;52.310;7.230;2022-09-09T13:43:15;51446.31;;;-145.83;65.86
7730;BME280;3908;52.310;7.230;2022-09-09T13:46:24;51465.88;;;-145.83;66.56
7730;BME280;3908;52.310;7.230;2022-09-09T13:49:21;51473.69;;;-145.83;64.38
7730;BME280;3908;52.310;7.230;2022-09-09T13:52:11;51473.69;;;-145.83;63.99
7730;BME280;3908;52.310;7.230;2022-09-09T13:54:59;51483.47;;;-145.83;62.21
7730;BME280;3908;52.310;7.230;2022-09-09T13:57:53;51481.53;;;-145.83;61.92
7730;BME280;3908;52.310;7.230;2022-09-09T14:00:40;51465.88;;;-145.83;62.07
7730;BME280;3908;52.310;7.230;2022-09-09T14:03:27;51481.53;;;-145.83;61.85
7730;BME280;3908;52.310;7.230;2022-09-09T14:06:15;51467.84;;;-145.83;63.22
7730;BME280;3908;52.310;7.230;2022-09-09T14:09:04;51469.78;;;-145.83;63.06
7730;BME280;3908;52.310;7.230;2022-09-09T14:11:51;51501.09;;;-145.83;63.13
7730;BME280;3908;52.310;7.230;2022-09-09T14:14:38;51460.00;;;-145.83;63.38
7730;BME280;3908;52.310;7.230;2022-09-09T14:17:27;51489.34;;;-145.83;64.31
7730;BME280;3908;52.310;7.230;2022-09-09T14:20:16;51495.22;;;-145.83;63.75
7730;BME280;3908;52.310;7.230;2022-09-09T14:23:10;51436.53;;;-145.83;64.50
7730;BME280;3908;52.310;7.230;2022-09-09T14:25:57;51458.06;;;-145.83;64.69
7730;BME280;3908;52.310;7.230;2022-09-09T14:28:44;51461.97;;;-145.83;67.71
7730;BME280;3908;52.310;7.230;2022-09-09T14:31:32;51440.44;;;-145.83;70.96
7730;BME280;3908;52.310;7.230;2022-09-09T14:34:19;51418.94;;;-145.83;73.07
7730;BME280;3908;52.310;7.230;2022-09-09T14:37:06;51452.19;;;-145.83;74.33
7730;BME280;3908;52.310;7.230;2022-09-09T14:39:54;51446.31;;;-145.83;75.04
7730;BME280;3908;52.310;7.230;2022-09-09T14:42:42;51471.75;;;-145.83;76.41
7730;BME280;3908;52.310;7.230;2022-09-09T14:45:29;51444.34;;;-145.83;77.45
7730;BME280;3908;52.310;7.230;2022-09-09T14:48:16;51491.31;;;-145.83;77.31
7730;BME280;3908;52.310;7.230;2022-09-09T14:51:07;51436.53;;;-145.83;77.20
7730;BME280;3908;52.310;7.230;2022-09-09T14:53:56;51442.41;;;-145.83;76.15
7730;BME280;3908;52.310;7.230;2022-09-09T14:56:45;51442.41;;;-145.83;74.25
7730;BME280;3908;52.310;7.230;2022-09-09T14:59:33;51428.72;;;-145.83;73.60
7730;BME280;3908;52.310;7.230;2022-09-09T15:02:20;51483.47;;;-145.83;73.80
7730;BME280;3908;52.310;7.230;2022-09-09T15:05:08;51446.31;;;-145.83;73.53
7730;BME280;3908;52.310;7.230;2022-09-09T15:07:56;51444.34;;;-145.83;72.32
7730;BME280;3908;52.310;7.230;2022-09-09T15:10:44;51432.63;;;-145.83;70.13